Date,TemperatureHighF,TemperatureAvgF,TemperatureLowF,DewpointHighF,DewpointAvgF,DewpointLowF,HumidityHigh,HumidityAvg,HumidityLow,PressureMaxIn,PressureMinIn,WindSpeedMaxMPH,WindSpeedAvgMPH,GustSpeedMaxMPH,PrecipitationSumIn
2013-9-1,71.4,60.7,50.4,61.9,56.1,49.3,97,86,60,29.92,29.85,20,5,20,0.00
2013-9-2,76.8,65.4,58.2,64.2,60.6,56.0,97,86,63,29.92,29.86,23,5,23,0.00
2013-9-3,75.5,62.2,47.6,59.9,55.2,46.5,97,80,48,29.97,29.88,26,5,26,0.01
2013-9-4,76.3,61.9,45.2,59.8,54.7,43.9,97,79,54,30.00,29.89,22,4,22,0.01
2013-9-5,77.6,63.1,50.2,58.9,54.1,48.9,97,75,49,29.97,29.90,20,5,24,0.00
2013-9-6,88.8,67.4,45.2,57.2,50.0,43.6,96,61,26,29.96,29.80,19,3,19,0.00
2013-9-7,92.0,66.2,47.7,55.9,50.5,44.2,95,64,22,29.85,29.78,16,4,16,0.00
2013-9-8,76.0,59.9,51.8,61.5,54.2,50.5,97,84,49,29.85,29.75,17,5,17,0.00
2013-9-9,78.3,60.0,51.6,60.9,54.8,50.4,98,85,49,29.79,29.69,18,6,18,0.00
2013-9-10,74.5,62.7,55.8,61.4,58.5,54.7,97,87,61,29.88,29.71,21,4,21,0.00
2013-9-11,69.5,63.5,61.0,60.5,59.6,58.7,95,87,71,29.98,29.87,12,3,12,0.01
2013-9-12,71.2,62.4,55.6,61.9,58.5,54.5,96,87,70,29.96,29.86,19,5,19,0.01
2013-9-13,72.0,59.7,52.9,60.2,55.3,51.3,98,86,63,29.88,29.72,19,4,19,0.00
2013-9-14,72.5,58.2,51.7,59.3,54.1,50.3,97,87,62,29.80,29.69,19,3,19,0.01
2013-9-15,73.8,59.0,48.3,59.7,54.6,46.9,97,87,57,29.83,29.74,20,4,24,0.00
2013-9-16,79.5,62.7,52.3,61.4,55.2,51.4,97,79,47,29.87,29.73,17,3,17,0.00
2013-9-17,74.7,61.6,50.3,57.2,52.9,47.5,96,75,53,29.87,29.77,27,6,27,0.00
2013-9-18,80.7,60.7,43.2,53.1,47.0,41.3,95,66,28,29.89,29.78,15,3,18,0.00
2013-9-19,82.3,58.7,40.5,53.3,47.5,39.0,96,72,34,29.84,29.74,14,3,17,0.00
2013-9-20,74.2,61.4,36.1,62.3,56.2,34.6,97,84,60,29.82,29.75,20,6,20,0.01
2013-9-21,68.7,61.6,54.7,62.7,58.0,51.3,97,88,66,29.85,29.75,20,6,20,0.29
2013-9-22,71.8,62.2,45.3,57.7,53.4,44.5,98,75,49,29.98,29.87,24,6,24,0.01
2013-9-23,80.2,61.7,48.5,62.2,54.7,46.4,97,80,52,29.99,29.89,19,3,22,0.00
2013-9-24,75.5,58.1,48.3,56.4,51.6,47.5,98,82,48,29.96,29.89,23,4,23,0.01
2013-9-25,68.4,56.8,44.0,50.8,46.7,42.0,95,71,46,29.92,29.80,16,5,26,0.00
2013-9-26,72.6,55.3,37.7,48.2,42.7,35.0,92,66,30,29.98,29.83,11,3,19,0.00
2013-9-27,79.8,59.2,39.9,47.5,41.0,29.9,94,59,18,30.07,29.98,20,3,20,0.00
2013-9-28,78.9,54.1,40.1,56.9,44.8,38.7,96,77,26,30.06,29.99,14,2,20,0.00
2013-9-29,69.8,60.0,48.3,62.8,57.6,46.9,97,92,77,30.07,30.01,17,3,17,0.01
2013-9-30,71.6,61.5,50.0,64.8,58.0,45.1,98,89,73,30.03,29.95,14,3,14,0.12